Tuesday, October 23, 2018, 8:40 PM EDT
Back to Local

KBHB, Bar Harbor, Hancock County-bar Harbor Airport

Location: Ellsworth, ME, United States Lat: 44.45
Local Time: 8:40 PM EDT ( 0:40 GMT) Lon: -68.367
Time Zone: US/Eastern Elev: 82 ft

Show me the last for .
Show Decoded

2018-10-23 19:56 METAR KBHB 232356Z AUTO 08006KT 10SM FEW080 06/04 A3004 RMK AO2 SLP176 60001
                 T00610044 10094 20061 400941039 58022 =
2018-10-23 18:56 METAR KBHB 232256Z AUTO 04008KT 10SM FEW095 06/05 A3006 RMK AO2 SLP185 T00610050
                 =
2018-10-23 17:56 METAR KBHB 232156Z AUTO 05005KT 10SM FEW022 07/06 A3008 RMK AO2 SLP191 T00720056
                 =
2018-10-23 16:56 METAR KBHB 232056Z AUTO 07004KT 10SM SCT026 08/06 A3010 RMK AO2 SLP199 60001
                 T00830061 57014 =
2018-10-23 15:56 METAR KBHB 231956Z AUTO 03005KT 10SM SCT038 BKN110 09/07 A3012 RMK AO2 RAE13
                 SLP203 P0000 T00890067 =
2018-10-23 14:56 METAR KBHB 231856Z AUTO 03004KT 10SM -RA OVC043 08/07 A3013 RMK AO2 SLP208 P0001
                 T00830067 =
2018-10-23 13:56 METAR KBHB 231756Z AUTO 07003KT 8SM -RA SCT034 BKN046 OVC060 08/06 A3015 RMK AO2
                 RAB08 SLP212 P0000 60003 T00780061 10083 20006 56015 =
2018-10-23 12:56 METAR KBHB 231656Z AUTO 10005KT 10SM BKN036 BKN065 08/06 A3016 RMK AO2 RAE1558
                 SLP216 P0000 T00780061 =
2018-10-23 11:56 METAR KBHB 231556Z AUTO VRB04KT 10SM -RA BKN030 BKN035 OVC050 07/05 A3017 RMK
                 AO2 RAB32 SLP222 P0000 T00670050 =
2018-10-23 10:56 METAR KBHB 231456Z AUTO 01005KT 10SM FEW023 BKN039 OVC080 04/02 A3019 RMK AO2
                 RAE50 SLP228 P0003 60003 T00440022 56007 =
2018-10-23 09:56 METAR KBHB 231356Z AUTO 03006KT 10SM -RA FEW030 BKN060 OVC110 05/M01 A3020 RMK
                 AO2 RAB53 SLP229 P0000 T00501006 =
2018-10-23 08:56 METAR KBHB 231256Z AUTO 02005KT 10SM SCT041 BKN050 OVC100 03/M02 A3021 RMK AO2
                 SLP233 T00281022 =
2018-10-23 07:56 METAR KBHB 231156Z AUTO 36006KT 10SM SCT060 OVC095 01/M03 A3021 RMK AO2 SLP235
                 T00061033 10006 21039 53003 FZRANO =
2018-10-23 06:56 METAR KBHB 231056Z AUTO 35004KT 5SM HZ OVC090 00/M03 A3020 RMK AO2 SLP230
                 T00001028 FZRANO =
2018-10-23 05:56 METAR KBHB 230956Z AUTO 35003KT 10SM OVC090 M01/M02 A3020 RMK AO2 SLP232
                 T10061022 FZRANO =
2018-10-23 04:56 METAR KBHB 230856Z AUTO 35003KT 10SM OVC090 M01/M02 A3020 RMK AO2 SLP232
                 T10061022 58002 FZRANO =
2018-10-23 03:56 METAR KBHB 230756Z AUTO 34003KT 10SM OVC090 M02/M03 A3020 RMK AO2 SLP232
                 T10221033 FZRANO =
2018-10-23 02:56 METAR KBHB 230656Z AUTO 00000KT 10SM FEW090 M03/M05 A3021 RMK AO2 SLP235
                 T10331050 FZRANO =
2018-10-23 01:56 METAR KBHB 230556Z AUTO 00000KT 10SM SCT090 M03/M05 A3021 RMK AO2 SLP234
                 T10281050 10022 21039 50007 FZRANO =
2018-10-23 00:56 METAR KBHB 230456Z AUTO 00000KT 10SM SCT095 M03/M05 A3021 RMK AO2 SLP235
                 T10281050 FZRANO =
2018-10-22 23:56 METAR KBHB 230356Z AUTO 00000KT 10SM CLR M02/M05 A3020 RMK AO2 SLP231 T10221050
                 FZRANO =
2018-10-22 22:56 METAR KBHB 230256Z AUTO 00000KT 10SM CLR M02/M05 A3019 RMK AO2 SLP227 T10221050
                 51014 FZRANO =
2018-10-22 21:56 METAR KBHB 230156Z AUTO 36004KT 10SM CLR M01/M04 A3018 RMK AO2 SLP225 T10111044
                 FZRANO =
2018-10-22 20:56 METAR KBHB 230056Z AUTO 00000KT 10SM CLR M01/M04 A3017 RMK AO2 SLP221 T10111044
                 FZRANO =

Support USWX by starting your Amazon purchase here.